Time;durP1;ratioP1;P1;durP2;ratioP2;P2;SDS_P1;SDS_P2;PMS_P1;PMS_P2;Temp;Humidity;BMP_temperature;BMP_pressure;BME280_temperature;BME280_humidity;BME280_pressure;Samples;Min_cycle;Max_cycle;Signal;HPM_P1;HPM_P2
2022/05/18 00:02:16;;;;;;;12.37;6.97;;;21.20;87.90;;;;;;5000354;28;20199;-78
2022/05/18 00:04:44;;;;;;;12.45;7.63;;;21.20;88.50;;;;;;4989461;28;20459;-77
2022/05/18 00:07:12;;;;;;;12.93;7.80;;;21.20;90.20;;;;;;4982074;28;20209;-78
2022/05/18 00:09:41;;;;;;;11.63;7.13;;;21.10;90.10;;;;;;4989372;28;20201;-78
2022/05/18 00:12:12;;;;;;;13.73;7.37;;;21.10;89.80;;;;;;4997621;28;20453;-78
2022/05/18 00:14:40;;;;;;;13.77;7.47;;;21.10;89.70;;;;;;4990039;28;20209;-78
2022/05/18 00:17:08;;;;;;;11.53;6.63;;;21.10;89.60;;;;;;4983683;28;20193;-77
2022/05/18 00:19:37;;;;;;;12.47;7.10;;;21.10;89.50;;;;;;4994328;28;20193;-78
2022/05/18 00:22:06;;;;;;;15.57;7.10;;;21.10;89.80;;;;;;4993228;28;20196;-78
2022/05/18 00:24:34;;;;;;;15.47;7.40;;;21.00;90.10;;;;;;4992825;28;20288;-77
2022/05/18 00:27:03;;;;;;;9.87;6.83;;;21.00;90.40;;;;;;4994866;28;20229;-79
2022/05/18 00:29:34;;;;;;;10.63;6.30;;;21.00;90.50;;;;;;4981732;28;20288;-78
2022/05/18 00:32:02;;;;;;;14.43;5.80;;;21.00;90.60;;;;;;4992249;28;20208;-77
2022/05/18 00:34:31;;;;;;;10.87;6.27;;;21.00;90.40;;;;;;4989113;28;21102;-78
2022/05/18 00:36:59;;;;;;;8.13;6.03;;;21.00;90.30;;;;;;4990241;28;20208;-78
2022/05/18 00:39:27;;;;;;;9.47;5.80;;;20.90;90.20;;;;;;4980235;28;20861;-78
2022/05/18 00:41:56;;;;;;;10.43;5.73;;;20.90;90.20;;;;;;4990403;28;20197;-78
2022/05/18 00:44:24;;;;;;;8.90;5.87;;;20.90;90.10;;;;;;4985741;28;20623;-78
2022/05/18 00:46:54;;;;;;;11.83;6.10;;;21.00;90.10;;;;;;4983630;28;20438;-79
2022/05/18 00:49:47;;;;;;;10.73;6.97;;;21.00;90.00;;;;;;4983258;28;20205;-79
2022/05/18 00:52:17;;;;;;;14.07;7.57;;;21.00;90.00;;;;;;4999623;28;20188;-79
2022/05/18 00:54:45;;;;;;;10.83;6.80;;;21.00;90.00;;;;;;4986836;28;20197;-79
2022/05/18 00:57:18;;;;;;;14.57;7.57;;;20.90;90.00;;;;;;4984997;28;20831;-78
2022/05/18 00:59:50;;;;;;;16.27;7.90;;;20.90;90.00;;;;;;4992221;28;20545;-78
2022/05/18 01:02:22;;;;;;;11.17;7.87;;;20.90;90.00;;;;;;4984713;28;20200;-78
2022/05/18 01:04:55;;;;;;;15.27;7.73;;;20.90;90.00;;;;;;4992727;28;20192;-77
2022/05/18 01:07:29;;;;;;;14.53;8.67;;;20.90;90.10;;;;;;4999151;28;20212;-76
2022/05/18 01:09:58;;;;;;;13.47;6.70;;;20.90;90.50;;;;;;4989599;28;20197;-79
2022/05/18 01:12:26;;;;;;;9.27;3.87;;;20.90;90.80;;;;;;4987363;28;20200;-76
2022/05/18 01:15:00;;;;;;;10.13;4.57;;;20.90;90.70;;;;;;4988767;28;20211;-78
2022/05/18 01:17:32;;;;;;;8.27;3.90;;;20.80;90.30;;;;;;4987841;28;20187;-78
2022/05/18 01:20:05;;;;;;;8.27;5.00;;;20.80;90.20;;;;;;5004250;28;20192;-77
2022/05/18 01:22:44;;;;;;;15.77;11.13;;;20.80;90.10;;;;;;4989843;28;20203;-77
2022/05/18 01:25:23;;;;;;;22.03;15.70;;;20.70;90.00;;;;;;4990618;28;20201;-77
2022/05/18 01:27:54;;;;;;;18.50;12.70;;;20.70;90.00;;;;;;4998677;28;20240;-78
2022/05/18 01:30:22;;;;;;;15.30;10.00;;;20.70;89.50;;;;;;4987020;28;20867;-77
2022/05/18 01:32:53;;;;;;;9.87;5.63;;;20.70;89.50;;;;;;4992151;28;20223;-77
2022/05/18 01:35:26;;;;;;;7.07;4.67;;;20.70;89.50;;;;;;4988867;28;20197;-76
2022/05/18 01:37:57;;;;;;;7.67;3.83;;;20.60;89.40;;;;;;5000456;28;20192;-76
2022/05/18 01:40:33;;;;;;;6.10;4.00;;;20.60;89.70;;;;;;5001131;28;20200;-77
2022/05/18 01:43:12;;;;;;;7.10;3.20;;;20.50;89.50;;;;;;4988388;28;20208;-76
2022/05/18 01:45:40;;;;;;;6.23;3.10;;;20.50;90.00;;;;;;4985545;28;20299;-76
2022/05/18 01:48:11;;;;;;;3.17;1.80;;;20.50;90.30;;;;;;5000634;28;20235;-79
2022/05/18 01:50:41;;;;;;;6.93;4.00;;;20.40;90.40;;;;;;4989058;28;20207;-78
2022/05/18 01:53:10;;;;;;;3.83;2.27;;;20.30;90.30;;;;;;5012792;28;20323;-77
2022/05/18 01:55:39;;;;;;;3.97;2.00;;;20.20;90.30;;;;;;4992517;28;20694;-78
2022/05/18 01:58:14;;;;;;;2.30;1.20;;;20.10;90.10;;;;;;4988666;28;20194;-76
2022/05/18 02:00:44;;;;;;;3.43;1.33;;;20.10;88.50;;;;;;4988835;28;20199;-75
2022/05/18 02:03:13;;;;;;;2.47;1.10;;;20.00;87.10;;;;;;4998812;28;20236;-74
2022/05/18 02:05:42;;;;;;;3.70;1.30;;;19.90;86.50;;;;;;4990572;28;20204;-75
2022/05/18 02:08:12;;;;;;;3.50;1.40;;;19.80;86.20;;;;;;4996002;28;20210;-76
2022/05/18 02:10:40;;;;;;;1.67;1.00;;;19.60;85.80;;;;;;4997464;28;20197;-78
2022/05/18 02:13:10;;;;;;;4.60;1.10;;;19.60;85.80;;;;;;4988609;28;20197;-76
2022/05/18 02:15:40;;;;;;;3.70;1.10;;;19.50;85.80;;;;;;4993076;28;20200;-75
2022/05/18 02:18:09;;;;;;;2.07;1.23;;;19.40;85.80;;;;;;4991216;28;20199;-78
2022/05/18 02:20:38;;;;;;;4.57;1.20;;;19.30;86.00;;;;;;4992609;28;20194;-76
2022/05/18 02:23:06;;;;;;;4.03;1.40;;;19.20;86.20;;;;;;5004951;28;20223;-75
2022/05/18 02:25:36;;;;;;;3.13;1.20;;;19.10;86.30;;;;;;4997529;28;20208;-77
2022/05/18 02:28:05;;;;;;;5.20;1.20;;;19.00;86.60;;;;;;4983943;28;20213;-76
2022/05/18 02:30:33;;;;;;;4.70;1.47;;;18.90;87.00;;;;;;5005928;28;20204;-77
2022/05/18 02:33:03;;;;;;;3.30;1.30;;;18.80;87.20;;;;;;4992161;28;20717;-79
2022/05/18 02:35:32;;;;;;;3.43;1.30;;;18.70;87.10;;;;;;4983505;28;20584;-80
2022/05/18 02:38:00;;;;;;;5.53;1.20;;;18.70;87.10;;;;;;4993491;28;20205;-77
2022/05/18 02:40:29;;;;;;;2.93;1.17;;;18.60;87.70;;;;;;4998329;28;20831;-77
2022/05/18 02:42:57;;;;;;;2.73;1.00;;;18.60;88.00;;;;;;4988762;28;20201;-77
2022/05/18 02:45:25;;;;;;;3.33;1.30;;;18.50;87.80;;;;;;4992758;28;20223;-78
2022/05/18 02:47:54;;;;;;;3.57;1.60;;;18.40;88.30;;;;;;4992931;28;20228;-77
2022/05/18 02:50:24;;;;;;;2.77;1.20;;;18.40;88.70;;;;;;4995806;28;20569;-79
2022/05/18 02:52:52;;;;;;;2.33;1.27;;;18.30;88.80;;;;;;4991509;28;20196;-76
2022/05/18 02:58:07;;;;;;;3.40;1.30;;;18.20;89.10;;;;;;4991465;28;20237;-79
2022/05/18 03:00:35;;;;;;;4.07;1.40;;;18.10;89.90;;;;;;4995161;28;20196;-78
2022/05/18 03:03:04;;;;;;;3.13;1.30;;;18.00;90.00;;;;;;4993593;28;20211;-77
2022/05/18 03:05:34;;;;;;;4.13;1.00;;;17.90;90.10;;;;;;4989786;28;20196;-78
2022/05/18 03:08:02;;;;;;;5.33;1.30;;;17.90;90.10;;;;;;4981359;28;20576;-75
2022/05/18 03:10:30;;;;;;;3.43;1.30;;;17.90;90.20;;;;;;4990094;28;20204;-77
2022/05/18 03:12:59;;;;;;;3.20;1.13;;;17.80;90.90;;;;;;4994743;28;20205;-77
2022/05/18 03:15:27;;;;;;;1.80;1.10;;;17.80;90.50;;;;;;4999603;28;20200;-77
2022/05/18 03:17:55;;;;;;;3.00;1.30;;;17.70;90.60;;;;;;4991629;28;20207;-75
2022/05/18 03:25:57;;;;;;;3.93;1.63;;;17.60;90.70;;;;;;4991565;28;20200;-77
2022/05/18 03:28:26;;;;;;;4.83;1.27;;;17.60;90.80;;;;;;4984355;28;20211;-77
2022/05/18 03:30:55;;;;;;;4.70;1.30;;;17.50;90.90;;;;;;4992521;28;20205;-73
2022/05/18 03:33:24;;;;;;;3.60;1.40;;;17.50;91.00;;;;;;4993931;28;20250;-79
2022/05/18 03:35:53;;;;;;;2.63;1.40;;;17.50;91.00;;;;;;4990002;28;20201;-77
2022/05/18 03:38:25;;;;;;;5.50;1.63;;;17.40;90.90;;;;;;4992042;28;20196;-75
2022/05/18 03:40:54;;;;;;;2.03;1.20;;;17.40;91.10;;;;;;4993037;28;20843;-75
2022/05/18 03:43:24;;;;;;;2.60;1.33;;;17.40;91.00;;;;;;4998389;28;20203;-77
2022/05/18 03:45:52;;;;;;;4.07;1.63;;;17.40;91.10;;;;;;4989514;28;20648;-75
2022/05/18 03:48:21;;;;;;;2.43;1.20;;;17.40;91.10;;;;;;4995835;28;20236;-77
2022/05/18 03:50:50;;;;;;;2.83;1.33;;;17.30;91.00;;;;;;4995686;28;20203;-77
2022/05/18 03:53:19;;;;;;;3.53;1.37;;;17.40;91.10;;;;;;4996300;28;20211;-75
2022/05/18 03:55:48;;;;;;;4.23;1.63;;;17.40;91.10;;;;;;4997949;28;20201;-74
2022/05/18 03:58:17;;;;;;;2.27;1.30;;;17.30;91.00;;;;;;4989090;28;20254;-76
2022/05/18 04:00:47;;;;;;;3.00;1.10;;;17.30;90.90;;;;;;4983053;28;21493;-75
2022/05/18 04:03:18;;;;;;;5.57;1.60;;;17.30;90.80;;;;;;4989991;28;20213;-79
2022/05/18 04:05:49;;;;;;;3.83;1.30;;;17.30;90.90;;;;;;4984709;28;20185;-79
2022/05/18 04:08:17;;;;;;;3.73;1.30;;;17.20;90.80;;;;;;4985452;28;20200;-80
2022/05/18 04:10:48;;;;;;;2.83;1.30;;;17.20;90.70;;;;;;4984040;28;20702;-77
2022/05/18 04:13:18;;;;;;;2.30;1.40;;;17.20;90.60;;;;;;4997619;28;20932;-78
2022/05/18 04:15:46;;;;;;;3.43;1.33;;;17.20;90.60;;;;;;4993883;28;20695;-76
2022/05/18 04:18:14;;;;;;;3.33;1.37;;;17.10;90.50;;;;;;4996649;28;20200;-75
2022/05/18 04:20:43;;;;;;;3.30;1.17;;;17.10;90.50;;;;;;4990005;28;20835;-75
2022/05/18 04:23:13;;;;;;;5.00;1.30;;;17.00;90.50;;;;;;5001379;28;20223;-75
2022/05/18 04:25:42;;;;;;;5.83;1.53;;;17.00;90.70;;;;;;4986416;28;20197;-78
2022/05/18 04:28:14;;;;;;;3.43;1.60;;;16.90;90.90;;;;;;4999987;28;20224;-75
2022/05/18 04:30:44;;;;;;;2.70;1.40;;;16.90;90.80;;;;;;4999057;28;20478;-79
2022/05/18 04:33:13;;;;;;;2.57;1.30;;;16.90;90.60;;;;;;4987995;28;20204;-77
2022/05/18 04:35:42;;;;;;;3.33;1.63;;;16.90;90.50;;;;;;4989828;28;20208;-78
2022/05/18 04:38:10;;;;;;;3.03;1.10;;;16.80;90.60;;;;;;4977282;28;20205;-78
2022/05/18 04:40:41;;;;;;;6.47;1.40;;;16.80;90.40;;;;;;4981816;28;20196;-77
2022/05/18 04:43:09;;;;;;;4.83;1.10;;;16.70;90.30;;;;;;4993887;28;20200;-79
2022/05/18 04:45:44;;;;;;;3.27;1.10;;;16.70;90.20;;;;;;4988589;28;20667;-79
2022/05/18 04:48:15;;;;;;;2.63;1.00;;;16.70;90.40;;;;;;4988335;28;20247;-79
2022/05/18 04:50:45;;;;;;;3.53;1.23;;;16.70;90.30;;;;;;4987168;28;20220;-78
2022/05/18 04:53:14;;;;;;;4.20;1.23;;;16.70;90.30;;;;;;5004286;28;20199;-79
2022/05/18 04:55:49;;;;;;;3.33;1.53;;;16.80;90.20;;;;;;5005384;28;20200;-78
2022/05/18 04:58:17;;;;;;;2.20;1.30;;;16.80;90.20;;;;;;4990177;28;20196;-79
2022/05/18 05:00:52;;;;;;;2.47;1.37;;;16.80;90.20;;;;;;4986807;28;20193;-80
2022/05/18 05:03:21;;;;;;;3.00;1.53;;;16.70;90.20;;;;;;4996997;28;20206;-78
2022/05/18 05:05:52;;;;;;;4.43;1.30;;;16.80;90.20;;;;;;4994403;28;20202;-74
2022/05/18 05:08:21;;;;;;;4.47;1.50;;;16.70;90.10;;;;;;4991778;28;20201;-79
2022/05/18 05:10:50;;;;;;;3.00;1.13;;;16.70;90.10;;;;;;4997586;28;20224;-78
2022/05/18 05:13:18;;;;;;;3.83;1.40;;;16.70;90.10;;;;;;5002619;28;20227;-78
2022/05/18 05:15:51;;;;;;;2.57;1.40;;;16.70;90.20;;;;;;4991637;28;20197;-76
2022/05/18 05:18:20;;;;;;;3.13;1.30;;;16.70;90.20;;;;;;4986873;28;20250;-79
2022/05/18 05:20:49;;;;;;;5.03;1.30;;;16.70;90.20;;;;;;4997667;28;20205;-77
2022/05/18 05:23:22;;;;;;;2.90;1.33;;;16.70;90.10;;;;;;4994219;28;20203;-79
2022/05/18 05:25:51;;;;;;;3.73;1.23;;;16.70;90.20;;;;;;4996529;28;20204;-78
2022/05/18 05:28:19;;;;;;;2.30;1.27;;;16.70;90.00;;;;;;4985327;28;20200;-78
2022/05/18 05:30:54;;;;;;;4.03;1.13;;;16.70;90.00;;;;;;4988995;28;20560;-81
2022/05/18 05:33:23;;;;;;;3.10;1.30;;;16.80;90.10;;;;;;4994944;28;20939;-77
2022/05/18 05:35:59;;;;;;;1.77;1.00;;;16.70;90.00;;;;;;4985521;28;20197;-77
2022/05/18 05:38:31;;;;;;;4.23;1.63;;;16.70;89.70;;;;;;4992969;28;20291;-77
2022/05/18 05:41:04;;;;;;;3.43;1.20;;;16.60;89.00;;;;;;4999757;28;20193;-79
2022/05/18 05:43:35;;;;;;;3.70;1.10;;;16.60;88.20;;;;;;4994137;28;20196;-76
2022/05/18 05:46:07;;;;;;;3.03;1.00;;;16.60;88.10;;;;;;4986137;28;20193;-78
2022/05/18 05:48:38;;;;;;;1.50;1.10;;;16.60;87.10;;;;;;4991985;28;20240;-79
2022/05/18 05:51:10;;;;;;;2.93;1.27;;;16.40;86.70;;;;;;4990461;28;20311;-79
2022/05/18 05:53:40;;;;;;;3.93;1.40;;;16.40;85.70;;;;;;4992150;28;20562;-80
2022/05/18 05:56:09;;;;;;;2.03;1.10;;;16.30;86.00;;;;;;4992697;28;20204;-79
2022/05/18 05:58:38;;;;;;;2.73;1.17;;;16.20;84.60;;;;;;4995104;28;20211;-78
2022/05/18 06:01:13;;;;;;;6.33;1.03;;;16.20;83.90;;;;;;4996047;28;20192;-82
2022/05/18 06:03:48;;;;;;;5.80;1.20;;;16.10;84.10;;;;;;4990496;28;20203;-77
2022/05/18 06:06:19;;;;;;;5.23;1.20;;;16.10;83.20;;;;;;4992150;28;20192;-75
2022/05/18 06:08:47;;;;;;;3.00;1.47;;;16.10;83.20;;;;;;5003690;28;20208;-77
2022/05/18 06:11:20;;;;;;;2.80;1.40;;;16.00;82.20;;;;;;5006517;28;20215;-75
2022/05/18 06:14:09;;;;;;;3.77;1.27;;;16.10;83.00;;;;;;4989969;28;20197;-83
2022/05/18 06:16:41;;;;;;;4.40;1.77;;;16.00;82.50;;;;;;4995086;28;20212;-78
2022/05/18 06:19:10;;;;;;;7.03;1.50;;;16.00;81.60;;;;;;4997645;28;20200;-77
2022/05/18 06:21:40;;;;;;;2.83;1.47;;;16.00;81.80;;;;;;4996879;28;20205;-76
2022/05/18 06:24:12;;;;;;;7.30;1.40;;;16.10;82.40;;;;;;4993103;28;20707;-75
2022/05/18 06:26:42;;;;;;;5.40;1.40;;;16.00;81.60;;;;;;4954883;28;20198;-77
2022/05/18 06:29:15;;;;;;;5.37;1.53;;;16.00;81.50;;;;;;4990959;28;20189;-75
2022/05/18 06:31:52;;;;;;;5.57;1.20;;;16.10;82.00;;;;;;4991443;28;20237;-78
2022/05/18 06:34:22;;;;;;;5.80;1.57;;;16.10;81.90;;;;;;4989977;28;20198;-76
2022/05/18 06:36:53;;;;;;;3.30;1.47;;;16.10;81.40;;;;;;4992359;28;20982;-80
2022/05/18 06:39:29;;;;;;;4.07;1.40;;;16.10;81.60;;;;;;5000455;28;20193;-79
2022/05/18 06:41:59;;;;;;;4.53;1.40;;;16.10;81.90;;;;;;4983538;28;20193;-77
2022/05/18 06:44:29;;;;;;;6.27;2.10;;;16.10;79.80;;;;;;4990674;28;20207;-77
2022/05/18 06:47:01;;;;;;;2.93;1.40;;;16.10;80.20;;;;;;4999018;28;20232;-80
2022/05/18 06:50:01;;;;;;;3.53;1.70;;;16.10;79.80;;;;;;5001464;28;20196;-79
2022/05/18 06:52:33;;;;;;;6.33;1.70;;;16.10;79.50;;;;;;4996925;28;20195;-79
2022/05/18 06:55:04;;;;;;;4.67;1.30;;;16.10;78.90;;;;;;4997698;28;20291;-78
2022/05/18 06:57:37;;;;;;;7.30;1.50;;;16.10;78.80;;;;;;4998070;28;20203;-80
2022/05/18 07:00:16;;;;;;;3.53;1.40;;;16.10;77.50;;;;;;5000121;28;20211;-76
2022/05/18 07:02:46;;;;;;;5.20;1.27;;;16.10;77.90;;;;;;4998651;28;20200;-79
2022/05/18 07:05:24;;;;;;;4.97;1.63;;;16.10;77.80;;;;;;4995703;28;20200;-78
2022/05/18 07:07:59;;;;;;;2.53;1.20;;;16.10;77.70;;;;;;4990432;28;20197;-78
2022/05/18 07:10:28;;;;;;;3.13;1.30;;;16.20;78.30;;;;;;4994283;28;20206;-78
2022/05/18 07:12:58;;;;;;;3.40;1.50;;;16.20;77.50;;;;;;4993023;28;20234;-77
2022/05/18 07:15:28;;;;;;;6.63;1.50;;;16.20;77.40;;;;;;4992324;28;20256;-79
2022/05/18 07:18:00;;;;;;;7.90;2.57;;;16.20;77.90;;;;;;4986099;28;20198;-77
2022/05/18 07:20:44;;;;;;;5.73;1.70;;;16.20;77.60;;;;;;4995570;28;20267;-77
2022/05/18 07:23:16;;;;;;;5.67;1.60;;;16.30;77.70;;;;;;4988068;28;20201;-75
2022/05/18 07:25:46;;;;;;;3.43;1.40;;;16.30;77.80;;;;;;4983084;28;20193;-76
2022/05/18 07:28:20;;;;;;;4.13;1.50;;;16.30;78.00;;;;;;4985210;28;20201;-76
2022/05/18 07:30:53;;;;;;;6.73;2.37;;;16.40;78.30;;;;;;4993968;28;20278;-75
2022/05/18 07:33:36;;;;;;;3.03;1.50;;;16.50;78.40;;;;;;4987592;28;20203;-77
2022/05/18 07:36:06;;;;;;;6.77;1.47;;;16.50;78.30;;;;;;4990694;28;20200;-78
2022/05/18 07:38:37;;;;;;;4.83;1.30;;;16.60;78.20;;;;;;4994721;28;20193;-76
2022/05/18 07:41:08;;;;;;;3.93;1.27;;;16.60;78.00;;;;;;4989475;28;20189;-77
2022/05/18 07:43:36;;;;;;;3.80;1.20;;;16.70;77.50;;;;;;4989574;28;20230;-74
2022/05/18 07:46:06;;;;;;;2.13;1.23;;;16.70;76.10;;;;;;4993282;28;20242;-73
2022/05/18 07:48:37;;;;;;;6.50;1.43;;;16.70;75.20;;;;;;5005181;28;20243;-74
2022/05/18 07:51:05;;;;;;;8.30;1.33;;;16.80;75.20;;;;;;4998668;28;20602;-76
2022/05/18 07:53:34;;;;;;;4.40;2.00;;;16.90;75.00;;;;;;5003255;28;20207;-75
2022/05/18 07:56:03;;;;;;;7.03;1.60;;;16.90;74.70;;;;;;5004759;28;20205;-78
2022/05/18 07:58:32;;;;;;;5.90;1.10;;;16.90;74.40;;;;;;5006116;28;20205;-77
2022/05/18 08:01:02;;;;;;;4.03;1.17;;;16.90;74.60;;;;;;5004121;28;20262;-77
2022/05/18 08:03:31;;;;;;;4.60;1.20;;;17.00;74.20;;;;;;4997186;28;20212;-76
2022/05/18 08:06:01;;;;;;;6.37;1.43;;;17.00;73.20;;;;;;4997127;28;20200;-77
2022/05/18 08:08:30;;;;;;;3.67;1.50;;;17.00;72.90;;;;;;4994296;28;20213;-79
2022/05/18 08:16:31;;;;;;;5.90;1.80;;;17.10;74.20;;;;;;4988157;28;20199;-77
2022/05/18 08:19:00;;;;;;;9.57;1.33;;;17.10;75.00;;;;;;4994637;28;20207;-77
2022/05/18 08:21:30;;;;;;;4.33;1.40;;;17.10;73.50;;;;;;4997792;28;20200;-77
2022/05/18 08:23:58;;;;;;;3.67;1.17;;;17.10;72.90;;;;;;4994080;28;20581;-77
2022/05/18 08:26:27;;;;;;;2.87;1.40;;;17.10;71.20;;;;;;4993429;28;20196;-75
2022/05/18 08:28:55;;;;;;;4.07;1.00;;;17.10;71.40;;;;;;4995186;28;20196;-77
2022/05/18 08:31:24;;;;;;;6.87;1.10;;;17.10;71.10;;;;;;5000447;28;20718;-78
2022/05/18 08:33:53;;;;;;;8.50;1.20;;;17.20;70.40;;;;;;4990975;28;20205;-74
2022/05/18 08:36:24;;;;;;;5.17;1.13;;;17.10;69.40;;;;;;4992831;28;20617;-76
2022/05/18 08:38:55;;;;;;;7.03;1.63;;;17.20;69.10;;;;;;4998380;28;21017;-77
2022/05/18 08:41:26;;;;;;;7.53;1.63;;;17.20;68.70;;;;;;4987450;28;20593;-73
2022/05/18 08:43:57;;;;;;;4.27;0.83;;;17.20;67.70;;;;;;4996760;28;20650;-77
2022/05/18 08:46:40;;;;;;;3.40;1.57;;;17.20;68.00;;;;;;4988382;28;20654;-80
2022/05/18 08:49:14;;;;;;;3.27;1.20;;;17.30;68.00;;;;;;4993515;28;20197;-75
2022/05/18 08:51:54;;;;;;;4.87;1.20;;;17.30;67.70;;;;;;4988953;28;20297;-77
2022/05/18 08:54:41;;;;;;;6.47;1.43;;;17.30;67.80;;;;;;5002558;28;20212;-78
2022/05/18 08:57:17;;;;;;;4.43;1.07;;;17.30;67.10;;;;;;4987587;28;20197;-75
2022/05/18 08:59:51;;;;;;;4.70;1.30;;;17.30;67.00;;;;;;4996689;28;20195;-81
2022/05/18 09:02:25;;;;;;;3.13;1.27;;;17.40;67.20;;;;;;4996137;28;20664;-80
2022/05/18 09:04:55;;;;;;;8.63;1.20;;;17.40;66.90;;;;;;4985009;28;20229;-80
2022/05/18 09:08:02;;;;;;;4.40;1.67;;;17.40;66.60;;;;;;4974399;28;20194;-77
2022/05/18 09:10:36;;;;;;;5.47;1.20;;;17.50;66.50;;;;;;4987724;28;20208;-78
2022/05/18 09:13:05;;;;;;;5.10;1.47;;;17.50;64.50;;;;;;4987686;28;20215;-77
2022/05/18 09:15:45;;;;;;;7.00;1.30;;;17.60;64.60;;;;;;4989759;28;20236;-79
2022/05/18 09:18:23;;;;;;;7.03;1.20;;;17.60;63.30;;;;;;4998840;28;20216;-77
2022/05/18 09:21:00;;;;;;;6.40;1.47;;;17.60;62.60;;;;;;4989147;28;20204;-79
2022/05/18 09:23:45;;;;;;;5.80;1.20;;;17.70;62.60;;;;;;4977732;28;20192;-79
2022/05/18 09:26:31;;;;;;;6.47;1.50;;;17.70;62.00;;;;;;5000026;28;20295;-79
2022/05/18 09:29:07;;;;;;;3.50;1.27;;;17.70;62.00;;;;;;4993316;28;20196;-79
2022/05/18 09:31:50;;;;;;;4.97;1.03;;;17.80;60.80;;;;;;4993916;28;20207;-79
2022/05/18 09:34:41;;;;;;;4.97;1.07;;;17.80;61.00;;;;;;4993248;28;20236;-78
2022/05/18 09:37:29;;;;;;;3.10;0.87;;;17.80;60.50;;;;;;4990931;28;20197;-81
2022/05/18 09:40:02;;;;;;;7.83;1.13;;;17.90;61.30;;;;;;4997272;28;20189;-79
2022/05/18 09:42:37;;;;;;;4.90;1.07;;;18.00;61.90;;;;;;4996576;28;20229;-80
2022/05/18 09:45:09;;;;;;;5.83;1.20;;;18.00;62.10;;;;;;4993394;28;20196;-77
2022/05/18 09:47:42;;;;;;;4.87;1.10;;;18.10;62.50;;;;;;4996779;28;20224;-78
2022/05/18 09:50:11;;;;;;;3.20;1.17;;;18.10;62.20;;;;;;4967192;28;20571;-78
2022/05/18 09:52:49;;;;;;;2.30;1.10;;;18.10;60.90;;;;;;5002208;28;20220;-79
2022/05/18 09:55:21;;;;;;;7.93;1.20;;;18.20;60.30;;;;;;5002446;28;20196;-78
2022/05/18 09:57:59;;;;;;;2.73;1.00;;;18.30;60.20;;;;;;5005949;28;20200;-80
2022/05/18 10:00:36;;;;;;;5.80;1.10;;;18.30;60.50;;;;;;4998744;28;20699;-77
2022/05/18 10:08:51;;;;;;;4.40;1.03;;;18.50;59.10;;;;;;5006916;28;20212;-79
2022/05/18 10:11:22;;;;;;;3.87;1.10;;;18.60;59.70;;;;;;4990191;28;20686;-81
2022/05/18 10:14:07;;;;;;;6.40;1.20;;;18.60;59.30;;;;;;5002254;28;20220;-77
2022/05/18 10:16:40;;;;;;;3.77;0.90;;;18.60;59.20;;;;;;4998006;28;20200;-79
2022/05/18 10:19:17;;;;;;;6.07;1.20;;;18.60;58.90;;;;;;4995916;28;21522;-81
2022/05/18 10:21:52;;;;;;;7.43;1.20;;;18.70;59.00;;;;;;4995948;28;20208;-78
2022/05/18 10:24:34;;;;;;;3.50;0.97;;;18.70;59.20;;;;;;4998854;28;20199;-79
2022/05/18 10:27:12;;;;;;;3.87;0.90;;;18.70;59.10;;;;;;5002146;28;20196;-80
2022/05/18 10:29:42;;;;;;;4.90;1.10;;;18.70;58.50;;;;;;4998996;28;20669;-79
2022/05/18 10:32:12;;;;;;;3.63;0.90;;;18.80;59.00;;;;;;5000017;28;20199;-79
2022/05/18 10:34:46;;;;;;;7.40;1.27;;;18.90;59.60;;;;;;4989192;28;20208;-79
2022/05/18 10:37:26;;;;;;;6.87;1.50;;;18.90;59.40;;;;;;4998959;28;20231;-80
2022/05/18 10:40:00;;;;;;;2.90;0.90;;;19.00;59.50;;;;;;4996862;28;20290;-79
2022/05/18 10:42:31;;;;;;;3.70;0.90;;;19.10;58.50;;;;;;4988069;28;20188;-80
2022/05/18 10:45:03;;;;;;;6.50;1.30;;;19.20;58.40;;;;;;4997626;28;20288;-80
2022/05/18 10:47:36;;;;;;;3.00;1.00;;;19.20;58.50;;;;;;4991710;28;20238;-81
2022/05/18 10:50:27;;;;;;;5.20;0.87;;;19.30;59.10;;;;;;5002094;28;20208;-80
2022/05/18 10:53:00;;;;;;;3.43;1.50;;;19.30;58.50;;;;;;5002362;28;20219;-79
2022/05/18 10:55:30;;;;;;;5.40;0.90;;;19.40;58.50;;;;;;4996095;28;20227;-80
2022/05/18 10:58:04;;;;;;;3.93;0.80;;;19.40;58.60;;;;;;4999648;28;20330;-80
2022/05/18 11:00:43;;;;;;;1.93;0.80;;;19.50;58.20;;;;;;4998604;28;20578;-80
2022/05/18 11:03:18;;;;;;;4.93;0.90;;;19.50;57.20;;;;;;4996123;28;20189;-80
2022/05/18 11:05:51;;;;;;;3.73;0.80;;;19.50;56.40;;;;;;4993845;28;20200;-78
2022/05/18 11:08:25;;;;;;;7.77;1.13;;;19.50;56.40;;;;;;4995259;28;20285;-79
2022/05/18 11:11:00;;;;;;;2.80;0.60;;;19.50;56.00;;;;;;4984416;28;20197;-80
2022/05/18 11:13:33;;;;;;;3.97;0.90;;;19.50;55.90;;;;;;4976997;28;20260;-80
2022/05/18 11:16:20;;;;;;;1.50;0.73;;;19.60;56.00;;;;;;4995258;28;20559;-79
2022/05/18 11:18:53;;;;;;;4.03;0.70;;;19.60;56.30;;;;;;4989185;28;20741;-80
2022/05/18 11:21:28;;;;;;;2.60;1.00;;;19.70;55.20;;;;;;4992490;28;20196;-79
2022/05/18 11:24:07;;;;;;;2.63;0.80;;;19.70;55.50;;;;;;4995275;28;20200;-80
2022/05/18 11:26:47;;;;;;;2.43;0.90;;;19.70;55.90;;;;;;4998319;28;20203;-80
2022/05/18 11:29:32;;;;;;;1.67;0.80;;;19.70;56.20;;;;;;4991196;28;20260;-80
2022/05/18 11:32:20;;;;;;;2.77;0.90;;;19.70;56.20;;;;;;4987471;28;20193;-80
2022/05/18 11:35:02;;;;;;;4.80;0.77;;;19.70;56.40;;;;;;4993484;28;20208;-79
2022/05/18 11:37:46;;;;;;;3.87;1.10;;;19.70;56.20;;;;;;4989327;28;20196;-80
2022/05/18 11:40:25;;;;;;;1.93;0.83;;;19.60;56.30;;;;;;4996834;28;20227;-80
2022/05/18 11:43:25;;;;;;;1.67;0.77;;;19.60;56.30;;;;;;4992122;28;20189;-80
2022/05/18 11:46:05;;;;;;;10.30;1.10;;;19.60;56.40;;;;;;4996120;28;20216;-81
2022/05/18 11:48:43;;;;;;;5.40;1.00;;;19.60;56.70;;;;;;4995986;28;20208;-80
2022/05/18 11:51:19;;;;;;;4.00;1.00;;;19.60;56.70;;;;;;4994055;28;20197;-79
2022/05/18 11:54:02;;;;;;;2.77;0.80;;;19.60;56.70;;;;;;4984300;28;20208;-81
2022/05/18 11:56:40;;;;;;;1.83;0.80;;;19.60;56.50;;;;;;5001848;28;20227;-80
2022/05/18 11:59:39;;;;;;;2.23;0.90;;;19.50;56.50;;;;;;4996408;28;20197;-80
2022/05/18 12:02:23;;;;;;;1.70;0.90;;;19.50;56.60;;;;;;4996898;28;20225;-81
2022/05/18 12:05:24;;;;;;;1.97;0.80;;;19.60;56.60;;;;;;4999158;28;20189;-80
2022/05/18 12:08:24;;;;;;;5.47;0.93;;;19.50;56.30;;;;;;4944549;28;20193;-80
2022/05/18 12:11:01;;;;;;;3.47;0.97;;;19.50;56.40;;;;;;4993447;28;20239;-80
2022/05/18 12:13:35;;;;;;;3.50;1.30;;;19.50;56.50;;;;;;5002981;28;20219;-81
2022/05/18 12:16:12;;;;;;;4.67;1.10;;;19.50;56.50;;;;;;4996824;28;20203;-80
2022/05/18 12:18:45;;;;;;;3.50;1.00;;;19.50;56.00;;;;;;4999481;28;20188;-82
2022/05/18 12:21:19;;;;;;;1.37;0.90;;;19.50;56.20;;;;;;4991954;28;20288;-81
2022/05/18 12:23:52;;;;;;;4.87;0.80;;;19.60;56.30;;;;;;4997850;28;20201;-81
2022/05/18 12:26:21;;;;;;;1.77;0.90;;;19.60;56.50;;;;;;4999265;28;20196;-78
2022/05/18 12:28:51;;;;;;;3.87;1.00;;;19.60;56.60;;;;;;4988349;28;20203;-81
2022/05/18 12:31:19;;;;;;;5.57;1.10;;;19.60;56.80;;;;;;4992409;28;20215;-77
2022/05/18 12:34:02;;;;;;;3.00;0.97;;;19.60;56.90;;;;;;4990179;28;20216;-80
2022/05/18 12:36:36;;;;;;;4.80;1.13;;;19.60;57.00;;;;;;4996510;28;20200;-80
2022/05/18 12:39:12;;;;;;;5.77;1.50;;;19.60;57.10;;;;;;4991340;28;20549;-81
2022/05/18 12:41:45;;;;;;;6.20;1.60;;;19.50;57.10;;;;;;4989573;28;20320;-81
2022/05/18 12:44:21;;;;;;;3.17;1.20;;;19.60;57.10;;;;;;4993058;28;20566;-83
2022/05/18 12:46:54;;;;;;;5.73;1.10;;;19.60;57.20;;;;;;4985406;28;20244;-81
2022/05/18 12:49:32;;;;;;;7.77;1.20;;;19.60;57.30;;;;;;4980056;28;20192;-81
2022/05/18 12:52:05;;;;;;;3.33;1.10;;;19.60;57.30;;;;;;4987672;28;20288;-82
2022/05/18 12:54:42;;;;;;;5.73;1.10;;;19.70;57.50;;;;;;4996324;28;20268;-81
2022/05/18 12:57:26;;;;;;;6.07;1.47;;;19.70;57.50;;;;;;5003442;28;20204;-81
2022/05/18 13:00:10;;;;;;;2.87;1.00;;;19.70;57.60;;;;;;4994617;28;20204;-81
2022/05/18 13:02:43;;;;;;;5.77;1.43;;;19.80;57.30;;;;;;5000567;28;20250;-79
2022/05/18 13:05:39;;;;;;;5.73;1.33;;;19.80;57.60;;;;;;5001594;28;20247;-81
2022/05/18 13:08:57;;;;;;;3.90;1.00;;;19.90;57.70;;;;;;4989970;28;20585;-80
2022/05/18 13:11:34;;;;;;;5.93;1.00;;;20.10;57.90;;;;;;4991656;28;20747;-79
2022/05/18 13:14:32;;;;;;;10.57;1.50;;;20.30;58.20;;;;;;5003128;28;20224;-81
2022/05/18 13:17:18;;;;;;;8.32;1.20;;;20.60;58.00;;;;;;4986999;28;20196;-80
2022/05/18 13:19:54;;;;;;;3.72;1.13;;;20.80;57.80;;;;;;4993604;28;20235;-83
2022/05/18 13:22:38;;;;;;;4.50;1.15;;;21.00;58.30;;;;;;4991005;28;20291;-80
2022/05/18 13:25:13;;;;;;;1.85;0.82;;;21.50;58.10;;;;;;4994760;28;20192;-81
2022/05/18 13:27:55;;;;;;;4.75;0.90;;;21.70;57.10;;;;;;4989187;28;20205;-80
2022/05/18 13:30:37;;;;;;;3.58;1.10;;;21.80;56.20;;;;;;5001825;28;20228;-79
2022/05/18 13:33:28;;;;;;;3.08;1.10;;;22.00;55.70;;;;;;4987667;28;20191;-81
2022/05/18 13:35:57;;;;;;;4.60;1.23;;;22.20;55.40;;;;;;4992847;28;20189;-82
2022/05/18 13:38:28;;;;;;;6.03;0.98;;;22.40;55.10;;;;;;4990541;28;20239;-82